createdAt,value
2023-12-17T00:00:22.091Z,26.90
2023-12-17T00:03:16.514Z,27.40
2023-12-17T00:05:36.487Z,26.73
2023-12-17T00:08:03.499Z,26.10
2023-12-17T00:10:33.291Z,26.00
2023-12-17T00:13:02.782Z,23.93
2023-12-17T00:15:31.933Z,25.20
2023-12-17T00:17:58.989Z,23.97
2023-12-17T00:20:29.081Z,28.83
2023-12-17T00:22:58.911Z,21.00
2023-12-17T00:25:26.016Z,23.63
2023-12-17T00:27:53.067Z,23.80
2023-12-17T00:30:20.374Z,21.60
2023-12-17T00:32:53.188Z,23.63
2023-12-17T00:35:21.673Z,23.00
2023-12-17T00:37:51.150Z,25.20
2023-12-17T00:40:21.398Z,21.47
2023-12-17T00:42:51.372Z,20.60
2023-12-17T00:45:20.664Z,28.43
2023-12-17T00:47:48.116Z,21.23
2023-12-17T00:50:15.454Z,23.13
2023-12-17T00:52:43.327Z,21.40
2023-12-17T00:55:10.579Z,22.13
2023-12-17T00:57:42.621Z,18.80
2023-12-17T01:00:10.689Z,23.60
2023-12-17T01:02:40.248Z,20.73
2023-12-17T01:05:08.502Z,24.03
2023-12-17T01:07:35.475Z,19.77
2023-12-17T01:10:03.542Z,20.70
2023-12-17T01:12:30.583Z,21.10
2023-12-17T01:14:57.729Z,20.97
2023-12-17T01:17:24.700Z,21.53
2023-12-17T01:19:51.898Z,19.70
2023-12-17T01:22:18.898Z,18.60
2023-12-17T01:24:46.033Z,20.03
2023-12-17T01:27:13.076Z,21.70
2023-12-17T01:29:42.325Z,17.53
2023-12-17T01:32:09.483Z,18.00
2023-12-17T01:34:36.564Z,19.90
2023-12-17T01:37:03.819Z,25.53
2023-12-17T01:39:30.957Z,21.37
2023-12-17T01:41:58.035Z,19.63
2023-12-17T01:44:28.038Z,17.17
2023-12-17T01:46:58.104Z,19.03
2023-12-17T01:49:28.504Z,19.50
2023-12-17T01:51:58.157Z,19.27
2023-12-17T01:54:26.129Z,17.33
2023-12-17T01:56:54.320Z,17.33
2023-12-17T01:59:22.104Z,17.90
2023-12-17T02:01:49.763Z,18.33
2023-12-17T02:04:17.272Z,15.90
2023-12-17T02:06:44.446Z,18.00
2023-12-17T02:09:11.857Z,23.53
2023-12-17T02:11:38.777Z,18.70
2023-12-17T02:14:08.185Z,17.83
2023-12-17T02:16:35.227Z,18.30
2023-12-17T02:19:04.714Z,18.47
2023-12-17T02:21:37.477Z,18.73
2023-12-17T02:24:07.336Z,19.20
2023-12-17T02:26:38.058Z,22.03
2023-12-17T02:29:05.155Z,17.50
2023-12-17T02:31:32.132Z,14.20
2023-12-17T02:34:01.423Z,15.90
2023-12-17T02:36:30.656Z,17.03
2023-12-17T02:38:57.922Z,14.27
2023-12-17T02:41:24.912Z,20.27
2023-12-17T02:43:56.421Z,14.30
2023-12-17T02:46:23.444Z,13.63
2023-12-17T02:48:52.751Z,14.03
2023-12-17T02:51:22.402Z,14.03
2023-12-17T02:53:49.531Z,15.00
2023-12-17T02:56:16.902Z,17.23
2023-12-17T02:58:46.959Z,16.03
2023-12-17T03:01:14.030Z,16.37
2023-12-17T03:03:41.202Z,23.23
2023-12-17T03:06:10.826Z,12.47
2023-12-17T03:08:39.647Z,14.60
2023-12-17T03:11:06.686Z,13.93
2023-12-17T03:13:33.751Z,14.93
2023-12-17T03:16:00.649Z,13.07
2023-12-17T03:18:27.860Z,13.87
2023-12-17T03:20:54.836Z,12.60
2023-12-17T03:23:22.019Z,12.77
2023-12-17T03:25:54.058Z,14.40
2023-12-17T03:28:21.058Z,12.73
2023-12-17T03:30:48.262Z,12.47
2023-12-17T03:33:15.678Z,13.37
2023-12-17T03:35:42.640Z,15.23
2023-12-17T03:38:12.346Z,16.60
2023-12-17T03:40:39.372Z,16.57
2023-12-17T03:43:09.395Z,11.67
2023-12-17T03:45:36.766Z,11.07
2023-12-17T03:48:06.480Z,19.63
2023-12-17T03:50:35.922Z,10.90
2023-12-17T03:53:11.551Z,10.50
2023-12-17T03:55:39.014Z,11.77
2023-12-17T03:58:08.581Z,10.27
2023-12-17T04:00:36.979Z,9.90
2023-12-17T04:03:04.301Z,10.23
2023-12-17T04:05:33.614Z,18.43
2023-12-17T04:08:00.581Z,9.70
2023-12-17T04:10:27.669Z,10.20
2023-12-17T04:12:54.894Z,11.57
2023-12-17T04:15:24.796Z,9.70
2023-12-17T04:17:52.150Z,12.93
2023-12-17T04:20:19.418Z,9.03
2023-12-17T04:22:46.444Z,12.37
2023-12-17T04:25:15.722Z,12.00
2023-12-17T04:27:42.976Z,11.60
2023-12-17T04:30:13.192Z,9.47
2023-12-17T04:32:40.399Z,11.07
2023-12-17T04:35:08.143Z,10.00
2023-12-17T04:37:35.107Z,9.50
2023-12-17T04:40:02.429Z,9.63
2023-12-17T04:42:34.636Z,9.43
2023-12-17T04:45:02.975Z,16.07
2023-12-17T04:47:30.164Z,8.97
2023-12-17T04:50:00.271Z,10.07
2023-12-17T04:52:31.396Z,8.70
2023-12-17T04:55:02.237Z,10.83
2023-12-17T04:57:29.317Z,12.10
2023-12-17T05:00:02.653Z,15.97
2023-12-17T05:02:29.846Z,10.10
2023-12-17T05:04:57.002Z,9.60
2023-12-17T05:07:23.980Z,10.53
2023-12-17T05:09:51.043Z,13.77
2023-12-17T05:12:18.015Z,11.57
2023-12-17T05:14:48.014Z,13.20
2023-12-17T05:17:15.208Z,10.63
2023-12-17T05:19:42.277Z,14.53
2023-12-17T05:22:11.501Z,10.67
2023-12-17T05:24:38.645Z,8.23
2023-12-17T05:27:05.788Z,8.23
2023-12-17T05:29:32.912Z,9.33
2023-12-17T05:32:02.474Z,9.33
2023-12-17T05:34:29.858Z,10.97
2023-12-17T05:36:56.805Z,11.80
2023-12-17T05:39:26.777Z,12.33
2023-12-17T05:41:56.237Z,17.13
2023-12-17T05:44:25.752Z,10.27
2023-12-17T05:46:55.356Z,9.30
2023-12-17T05:49:22.477Z,18.03
2023-12-17T05:51:50.492Z,8.43
2023-12-17T05:54:18.876Z,8.87
2023-12-17T05:56:46.123Z,8.70
2023-12-17T05:59:13.133Z,7.80
2023-12-17T06:01:40.294Z,10.80
2023-12-17T06:04:07.317Z,8.23
2023-12-17T06:06:37.407Z,7.63
2023-12-17T06:09:05.049Z,8.70
2023-12-17T06:11:32.257Z,10.80
2023-12-17T06:14:00.008Z,13.40
2023-12-17T06:16:27.170Z,11.90
2023-12-17T06:18:56.902Z,10.33
2023-12-17T06:21:30.610Z,8.17
2023-12-17T06:24:00.449Z,8.77
2023-12-17T06:26:28.058Z,15.73
2023-12-17T06:28:55.398Z,10.67
2023-12-17T06:31:23.188Z,8.43
2023-12-17T06:33:50.562Z,12.30
2023-12-17T06:36:20.698Z,8.53
2023-12-17T06:38:48.966Z,14.60
2023-12-17T06:41:18.554Z,9.50
2023-12-17T06:43:47.622Z,7.63
2023-12-17T06:46:18.004Z,10.30
2023-12-17T06:48:48.074Z,8.40
2023-12-17T06:51:22.302Z,8.50
2023-12-17T06:53:54.788Z,8.63
2023-12-17T06:56:21.921Z,8.60
2023-12-17T06:58:48.860Z,17.00
2023-12-17T07:01:16.152Z,9.37
2023-12-17T07:03:43.509Z,8.87
2023-12-17T07:06:12.721Z,10.60
2023-12-17T07:08:43.049Z,8.57
2023-12-17T07:11:15.167Z,16.23
2023-12-17T07:13:43.150Z,8.57
2023-12-17T07:16:24.701Z,10.47
2023-12-17T07:18:55.325Z,12.43
2023-12-17T07:21:22.805Z,9.53
2023-12-17T07:23:53.064Z,8.73
2023-12-17T07:26:23.160Z,11.53
2023-12-17T07:28:50.495Z,11.10
2023-12-17T07:31:17.514Z,12.67
2023-12-17T07:33:44.901Z,10.07
2023-12-17T07:36:12.110Z,11.53
2023-12-17T07:38:39.032Z,10.87
2023-12-17T07:41:06.236Z,9.93
2023-12-17T07:43:35.743Z,9.90
2023-12-17T07:46:02.964Z,10.57
2023-12-17T07:48:30.089Z,11.23
2023-12-17T07:50:58.302Z,8.83
2023-12-17T07:53:25.609Z,11.00
2023-12-17T07:55:58.292Z,14.40
2023-12-17T07:58:26.342Z,8.60
2023-12-17T08:00:57.214Z,10.00
2023-12-17T08:03:25.401Z,14.03
2023-12-17T08:05:54.095Z,8.70
2023-12-17T08:08:23.972Z,11.37
2023-12-17T08:10:54.099Z,11.60
2023-12-17T08:13:21.022Z,12.20
2023-12-17T08:15:48.175Z,10.80
2023-12-17T08:18:16.293Z,11.50
2023-12-17T08:20:48.820Z,9.47
2023-12-17T08:23:16.067Z,9.27
2023-12-17T08:25:43.764Z,10.17
2023-12-17T08:28:10.986Z,9.93
2023-12-17T08:30:44.273Z,12.00
2023-12-17T08:33:11.494Z,11.37
2023-12-17T08:35:39.199Z,14.83
2023-12-17T08:38:07.470Z,15.90
2023-12-17T08:40:35.199Z,14.73
2023-12-17T08:43:05.777Z,14.23
2023-12-17T08:45:33.322Z,12.23
2023-12-17T08:48:04.141Z,17.70
2023-12-17T08:50:34.599Z,12.93
2023-12-17T08:53:06.593Z,10.30
2023-12-17T08:55:33.557Z,13.90
2023-12-17T08:58:00.620Z,11.27
2023-12-17T09:00:27.713Z,10.27
2023-12-17T09:02:54.836Z,12.70
2023-12-17T09:05:21.816Z,12.40
2023-12-17T09:07:48.984Z,16.47
2023-12-17T09:10:16.041Z,10.80
2023-12-17T09:12:44.130Z,10.43
2023-12-17T09:15:13.618Z,12.00
2023-12-17T09:17:43.805Z,16.93
2023-12-17T09:20:13.068Z,11.57
2023-12-17T09:22:40.193Z,12.90
2023-12-17T09:25:08.012Z,14.00
2023-12-17T09:27:35.256Z,10.60
2023-12-17T09:30:05.053Z,12.63
2023-12-17T09:32:34.922Z,14.03
2023-12-17T09:35:01.868Z,11.37
2023-12-17T09:37:29.044Z,12.53
2023-12-17T09:39:59.027Z,10.27
2023-12-17T09:42:27.441Z,13.70
2023-12-17T09:44:57.605Z,11.17
2023-12-17T09:47:25.079Z,11.17
2023-12-17T09:49:52.136Z,16.73
2023-12-17T09:52:30.127Z,9.37
2023-12-17T09:54:57.342Z,9.53
2023-12-17T09:57:29.536Z,21.23
2023-12-17T09:59:56.781Z,9.83
2023-12-17T10:02:23.697Z,9.53
2023-12-17T10:05:10.989Z,10.97
2023-12-17T10:07:39.779Z,11.27
2023-12-17T10:10:08.412Z,9.63
2023-12-17T10:12:37.958Z,10.27
2023-12-17T10:15:11.081Z,8.63
2023-12-17T10:17:42.170Z,9.30
2023-12-17T10:20:10.108Z,9.70
2023-12-17T10:22:38.061Z,9.03
2023-12-17T10:25:05.866Z,9.10
2023-12-17T10:27:33.616Z,7.90
2023-12-17T10:30:03.270Z,7.20
2023-12-17T10:32:31.118Z,8.37
2023-12-17T10:34:58.776Z,7.93
2023-12-17T10:37:27.660Z,7.00
2023-12-17T10:39:59.348Z,7.10
2023-12-17T10:42:29.208Z,7.27
2023-12-17T10:44:59.335Z,7.40
2023-12-17T10:47:27.494Z,7.87
2023-12-17T10:49:55.468Z,7.10
2023-12-17T10:52:25.762Z,7.73
2023-12-17T10:54:54.089Z,7.73
2023-12-17T10:57:26.361Z,7.43
2023-12-17T10:59:57.634Z,11.93
2023-12-17T11:02:27.437Z,7.97
2023-12-17T11:04:57.842Z,7.70
2023-12-17T11:07:34.900Z,8.20
2023-12-17T11:10:13.010Z,8.30
2023-12-17T11:12:41.510Z,9.80
2023-12-17T11:15:09.153Z,8.63
2023-12-17T11:17:44.137Z,8.73
2023-12-17T11:20:15.674Z,9.40
2023-12-17T11:22:42.747Z,11.40
2023-12-17T11:25:12.274Z,16.23
2023-12-17T11:27:40.706Z,9.00
2023-12-17T11:30:28.622Z,10.70
2023-12-17T11:32:59.590Z,9.43
2023-12-17T11:35:29.740Z,9.67
2023-12-17T11:38:00.195Z,10.07
2023-12-17T11:40:28.890Z,13.60
2023-12-17T11:43:04.708Z,10.13
2023-12-17T11:45:49.407Z,9.20
2023-12-17T11:48:22.208Z,14.20
2023-12-17T11:50:58.227Z,11.70
2023-12-17T11:53:27.457Z,10.50
2023-12-17T11:56:04.596Z,11.37
2023-12-17T11:58:48.599Z,9.30
2023-12-17T12:01:18.336Z,9.97
2023-12-17T12:03:48.096Z,10.33
2023-12-17T12:06:16.498Z,9.67
2023-12-17T12:08:50.599Z,9.97
2023-12-17T12:11:20.768Z,10.27
2023-12-17T12:13:51.791Z,9.07
2023-12-17T12:16:27.367Z,10.80
2023-12-17T12:19:04.835Z,8.67
2023-12-17T12:21:32.767Z,11.10
2023-12-17T12:24:10.721Z,9.40
2023-12-17T12:26:40.095Z,10.50
2023-12-17T12:29:09.394Z,9.43
2023-12-17T12:31:39.109Z,10.40
2023-12-17T12:34:07.706Z,9.13
2023-12-17T12:36:50.009Z,9.50
2023-12-17T12:39:21.285Z,10.23
2023-12-17T12:41:49.894Z,10.33
2023-12-17T12:44:19.060Z,11.23
2023-12-17T12:46:52.341Z,11.37
2023-12-17T12:49:19.976Z,11.60
2023-12-17T12:51:48.468Z,11.20
2023-12-17T12:54:15.785Z,12.00
2023-12-17T12:56:42.931Z,16.13
2023-12-17T12:59:22.674Z,19.47
2023-12-17T13:01:53.389Z,14.33
2023-12-17T13:04:20.751Z,13.53
2023-12-17T13:06:50.954Z,13.60
2023-12-17T13:09:21.632Z,13.07
2023-12-17T13:11:51.356Z,14.17
2023-12-17T13:14:19.008Z,13.23
2023-12-17T13:16:51.340Z,13.50
2023-12-17T13:19:19.999Z,14.17
2023-12-17T13:21:48.079Z,14.73
2023-12-17T13:24:17.742Z,13.47
2023-12-17T13:26:50.070Z,13.47
2023-12-17T13:29:17.220Z,14.10
2023-12-17T13:31:45.254Z,12.67
2023-12-17T13:34:12.592Z,13.90
2023-12-17T13:36:39.737Z,13.17
2023-12-17T13:39:06.915Z,16.00
2023-12-17T13:41:44.789Z,13.87
2023-12-17T13:44:15.475Z,14.20
2023-12-17T13:46:45.460Z,11.90
2023-12-17T13:49:12.558Z,13.53
2023-12-17T13:51:42.099Z,10.70
2023-12-17T13:54:09.167Z,12.57
2023-12-17T13:56:40.920Z,12.13
2023-12-17T13:59:13.814Z,15.23
2023-12-17T14:01:43.729Z,17.17
2023-12-17T14:04:10.794Z,13.17
2023-12-17T14:06:43.507Z,11.43
2023-12-17T14:09:10.697Z,11.77
2023-12-17T14:11:40.555Z,11.10
2023-12-17T14:14:10.284Z,11.40
2023-12-17T14:16:43.389Z,12.00
2023-12-17T14:19:11.704Z,13.60
2023-12-17T14:21:40.028Z,13.10
2023-12-17T14:24:14.626Z,11.30
2023-12-17T14:26:44.393Z,12.43
2023-12-17T14:29:13.636Z,22.37
2023-12-17T14:31:41.414Z,17.07
2023-12-17T14:34:09.828Z,12.33
2023-12-17T14:36:40.240Z,13.03
2023-12-17T14:39:07.657Z,13.30
2023-12-17T14:41:34.717Z,13.07
2023-12-17T14:44:04.895Z,16.20
2023-12-17T14:46:33.417Z,13.60
2023-12-17T14:49:03.069Z,12.67
2023-12-17T14:51:31.999Z,14.73
2023-12-17T14:54:00.740Z,17.17
2023-12-17T14:56:27.966Z,19.43
2023-12-17T14:58:58.162Z,12.73
2023-12-17T15:01:31.833Z,12.73
2023-12-17T15:04:02.855Z,15.23
2023-12-17T15:06:33.017Z,18.90
2023-12-17T15:09:02.663Z,17.40
2023-12-17T15:11:32.407Z,15.23
2023-12-17T15:13:59.358Z,15.63
2023-12-17T15:16:30.197Z,12.47
2023-12-17T15:19:00.304Z,13.67
2023-12-17T15:21:31.409Z,13.50
2023-12-17T15:24:01.747Z,13.17
2023-12-17T15:26:33.994Z,13.00
2023-12-17T15:29:01.060Z,16.80
2023-12-17T15:31:29.870Z,12.93
2023-12-17T15:33:58.876Z,16.90
2023-12-17T15:36:28.003Z,14.27
2023-12-17T15:38:55.320Z,16.87
2023-12-17T15:41:24.767Z,13.23
2023-12-17T15:43:55.525Z,12.77
2023-12-17T15:46:32.049Z,16.03
2023-12-17T15:49:02.366Z,14.13
2023-12-17T15:51:34.529Z,16.80
2023-12-17T15:54:01.984Z,12.40
2023-12-17T15:56:29.098Z,12.80
2023-12-17T15:58:56.266Z,12.40
2023-12-17T16:01:23.503Z,14.57
2023-12-17T16:03:52.890Z,14.17
2023-12-17T16:06:21.633Z,12.83
2023-12-17T16:08:48.775Z,13.40
2023-12-17T16:11:16.136Z,14.27
2023-12-17T16:13:45.583Z,12.57
2023-12-17T16:16:22.001Z,12.93
2023-12-17T16:18:49.574Z,14.27
2023-12-17T16:21:17.699Z,11.90
2023-12-17T16:23:47.633Z,14.70
2023-12-17T16:26:15.020Z,14.93
2023-12-17T16:28:42.169Z,15.60
2023-12-17T16:31:09.425Z,14.40
2023-12-17T16:33:38.907Z,19.17
2023-12-17T16:36:06.229Z,13.10
2023-12-17T16:38:33.242Z,12.67
2023-12-17T16:41:00.321Z,13.73
2023-12-17T16:43:27.301Z,12.77
2023-12-17T16:45:54.387Z,12.30
2023-12-17T16:48:22.313Z,12.60
2023-12-17T16:50:50.234Z,12.10
2023-12-17T16:53:20.373Z,12.83
2023-12-17T16:55:47.446Z,12.70
2023-12-17T16:58:19.532Z,11.90
2023-12-17T17:00:49.804Z,13.23
2023-12-17T17:03:16.995Z,12.03
2023-12-17T17:05:45.084Z,14.03
2023-12-17T17:08:12.035Z,13.70
2023-12-17T17:10:39.213Z,13.70
2023-12-17T17:13:06.348Z,14.47
2023-12-17T17:15:36.590Z,16.00
2023-12-17T17:18:04.193Z,15.10
2023-12-17T17:20:32.098Z,15.00
2023-12-17T17:23:01.299Z,23.40
2023-12-17T17:25:30.893Z,17.10
2023-12-17T17:27:57.951Z,17.73
2023-12-17T17:30:25.139Z,17.70
2023-12-17T17:32:52.494Z,19.67
2023-12-17T17:35:19.742Z,18.83
2023-12-17T17:37:46.727Z,17.07
2023-12-17T17:40:13.902Z,21.17
2023-12-17T17:42:43.217Z,18.93
2023-12-17T17:45:11.027Z,20.97
2023-12-17T17:47:38.138Z,18.80
2023-12-17T17:50:05.625Z,20.97
2023-12-17T17:52:32.679Z,21.77
2023-12-17T17:54:59.754Z,22.13
2023-12-17T17:57:27.138Z,17.33
2023-12-17T17:59:56.653Z,24.50
2023-12-17T18:02:23.586Z,25.33
2023-12-17T18:04:50.848Z,20.30
2023-12-17T18:07:18.982Z,23.53
2023-12-17T18:09:46.804Z,18.93
2023-12-17T18:12:13.752Z,20.40
2023-12-17T18:14:40.963Z,22.73
2023-12-17T18:17:08.307Z,22.10
2023-12-17T18:19:36.405Z,19.87
2023-12-17T18:22:08.699Z,22.20
2023-12-17T18:24:35.677Z,23.50
2023-12-17T18:27:02.850Z,24.43
2023-12-17T18:29:30.577Z,20.63
2023-12-17T18:31:57.873Z,18.97
2023-12-17T18:34:28.539Z,20.97
2023-12-17T18:36:55.822Z,22.70
2023-12-17T18:39:25.632Z,24.20
2023-12-17T18:41:54.993Z,21.13
2023-12-17T18:44:25.091Z,23.27
2023-12-17T18:46:52.001Z,25.10
2023-12-17T18:49:19.263Z,21.77
2023-12-17T18:51:46.703Z,25.17
2023-12-17T18:54:16.837Z,25.23
2023-12-17T18:56:46.983Z,25.53
2023-12-17T18:59:16.459Z,26.30
2023-12-17T19:01:43.376Z,26.47
2023-12-17T19:04:13.496Z,28.67
2023-12-17T19:06:40.719Z,28.90
2023-12-17T19:09:10.100Z,23.37
2023-12-17T19:11:42.084Z,25.67
2023-12-17T19:14:11.561Z,27.10
2023-12-17T19:16:38.596Z,30.63
2023-12-17T19:19:05.672Z,31.53
2023-12-17T19:21:32.815Z,31.47
2023-12-17T19:23:59.771Z,30.27
2023-12-17T19:26:26.985Z,29.03
2023-12-17T19:28:56.397Z,31.97
2023-12-17T19:31:23.363Z,26.33
2023-12-17T19:33:50.720Z,33.60
2023-12-17T19:36:17.923Z,35.27
2023-12-17T19:38:47.334Z,24.57
2023-12-17T19:41:17.499Z,24.83
2023-12-17T19:43:45.192Z,31.50
2023-12-17T19:46:12.712Z,28.30
2023-12-17T19:48:40.439Z,28.90
2023-12-17T19:51:15.036Z,25.17
2023-12-17T19:53:43.761Z,25.40
2023-12-17T19:56:20.327Z,29.10
2023-12-17T19:58:47.921Z,29.33
2023-12-17T20:01:15.771Z,30.50
2023-12-17T20:03:43.187Z,28.43
2023-12-17T20:06:13.329Z,25.07
2023-12-17T20:08:43.440Z,31.70
2023-12-17T20:11:12.959Z,23.27
2023-12-17T20:13:49.683Z,25.03
2023-12-17T20:16:19.800Z,27.57
2023-12-17T20:18:47.892Z,30.97
2023-12-17T20:21:18.528Z,25.50
2023-12-17T20:23:48.498Z,30.47
2023-12-17T20:26:15.973Z,21.73
2023-12-17T20:28:46.505Z,25.87
2023-12-17T20:31:16.065Z,32.27
2023-12-17T20:33:45.770Z,27.00
2023-12-17T20:36:20.516Z,28.50
2023-12-17T20:38:49.705Z,27.87
2023-12-17T20:41:19.336Z,28.37
2023-12-17T20:43:47.296Z,26.63
2023-12-17T20:46:14.314Z,26.40
2023-12-17T20:48:41.450Z,25.53
2023-12-17T20:51:11.102Z,31.03
2023-12-17T20:53:42.815Z,31.07
2023-12-17T20:56:12.721Z,26.37
2023-12-17T20:58:42.572Z,26.07
2023-12-17T21:01:12.550Z,37.23
2023-12-17T21:03:39.747Z,34.73
2023-12-17T21:06:06.904Z,26.77
2023-12-17T21:08:39.117Z,27.13
2023-12-17T21:11:06.130Z,26.50
2023-12-17T21:13:33.301Z,33.90
2023-12-17T21:16:03.804Z,25.70
2023-12-17T21:18:31.341Z,30.80
2023-12-17T21:21:02.379Z,21.50
2023-12-17T21:23:36.462Z,38.00
2023-12-17T21:26:07.968Z,29.70
2023-12-17T21:28:39.040Z,28.60
2023-12-17T21:31:07.065Z,32.83
2023-12-17T21:33:34.642Z,26.90
2023-12-17T21:36:01.783Z,28.50
2023-12-17T21:38:34.755Z,31.80
2023-12-17T21:41:02.789Z,34.33
2023-12-17T21:43:30.519Z,27.13
2023-12-17T21:45:58.483Z,30.53
2023-12-17T21:48:26.885Z,32.40
2023-12-17T21:51:12.793Z,22.17
2023-12-17T21:53:42.648Z,37.10
2023-12-17T21:56:10.432Z,28.83
2023-12-17T21:58:41.988Z,29.43
2023-12-17T22:01:10.661Z,40.97
2023-12-17T22:03:41.154Z,29.73
2023-12-17T22:06:09.910Z,33.83
2023-12-17T22:08:38.970Z,26.30
2023-12-17T22:11:06.147Z,36.23
2023-12-17T22:13:34.130Z,31.83
2023-12-17T22:16:02.101Z,34.33
2023-12-17T22:18:29.735Z,29.30
2023-12-17T22:20:58.240Z,25.83
2023-12-17T22:23:26.885Z,26.70
2023-12-17T22:26:00.064Z,25.07
2023-12-17T22:28:29.141Z,28.90
2023-12-17T22:30:57.056Z,24.80
2023-12-17T22:33:31.083Z,30.83
2023-12-17T22:36:03.657Z,27.63
2023-12-17T22:38:38.725Z,25.23
2023-12-17T22:41:06.821Z,30.10
2023-12-17T22:43:34.741Z,28.37
2023-12-17T22:46:03.720Z,39.50
2023-12-17T22:48:35.697Z,24.90
2023-12-17T22:51:15.797Z,24.87
2023-12-17T22:53:43.063Z,31.17
2023-12-17T22:56:13.067Z,26.10
2023-12-17T22:58:49.810Z,25.30
2023-12-17T23:01:24.286Z,39.00
2023-12-17T23:03:54.711Z,35.50
2023-12-17T23:06:22.292Z,35.30
2023-12-17T23:08:49.895Z,36.70
2023-12-17T23:11:19.109Z,28.70
2023-12-17T23:13:53.577Z,26.90
2023-12-17T23:16:24.414Z,27.47
2023-12-17T23:18:54.249Z,35.07
2023-12-17T23:21:28.571Z,23.23
2023-12-17T23:23:56.251Z,29.27
2023-12-17T23:26:26.103Z,27.93
2023-12-17T23:28:54.354Z,36.57
2023-12-17T23:31:24.609Z,31.10
2023-12-17T23:33:52.285Z,35.27
2023-12-17T23:36:19.756Z,27.07
2023-12-17T23:38:49.377Z,26.43
2023-12-17T23:41:17.558Z,28.57
2023-12-17T23:43:47.721Z,43.43
2023-12-17T23:46:17.902Z,30.10
2023-12-17T23:48:46.295Z,35.70
2023-12-17T23:51:19.266Z,31.90
2023-12-17T23:53:47.270Z,31.97
2023-12-17T23:56:19.662Z,30.33
2023-12-17T23:58:50.673Z,35.10
